CheckWX is a tool to help pilots better visualize weather data.  It is not intended as a substitute for an official pre-flight weather briefing.

04:16:26 UTC

KHUA METAR
Redstone AAF Airport
Redstone Arsnl Huntsville, Alabama, USA
Current

1 hour ago

KHUA 270258Z AUTO 24004KT 9SM CLR 25/20 A3018 RMK AO2 LTG DSNT NE SLP214 T02500199 52020
Observed
Jun-27 @ 02:58 UTC
Wind
  • 240° at 4 KTS
Visibility
9 SM
Flight Rules
VFR
Cloud Levels
  • Clear skies
Temperature
25°C / 77°F
Dewpoint
20°C / 68°F
Humidity
74%
Altimeter
30.18" Hg
Pressure
1022.02 hPa
Previous

2 hours ago

KHUA 270158Z AUTO 18006KT 10SM CLR 25/20 A3015 RMK AO2 SLP204 T02520203
Observed
Jun-27 @ 01:58 UTC
Wind
  • 180° at 6 KTS
Visibility
10 SM
Flight Rules
VFR
Cloud Levels
  • Clear skies
Temperature
25°C / 77°F
Dewpoint
20°C / 68°F
Humidity
74%
Altimeter
30.15" Hg
Pressure
1021.02 hPa
Previous

3 hours ago

KHUA 270058Z AUTO 00000KT 10SM CLR 29/19 A3013 RMK AO2 LTG DSNT SW SLP197 T02880187
Observed
Jun-27 @ 00:58 UTC
Visibility
10 SM
Flight Rules
VFR
Cloud Levels
  • Clear skies
Temperature
29°C / 84°F
Dewpoint
19°C / 66°F
Heat Index
30°C / 86°F
Humidity
55%
Altimeter
30.13" Hg
Pressure
1020.32 hPa